Time;durP1;ratioP1;P1;durP2;ratioP2;P2;SDS_P1;SDS_P2;PMS_P1;PMS_P2;Temp;Humidity;BMP_temperature;BMP_pressure;BME280_temperature;BME280_humidity;BME280_pressure;Samples;Min_cycle;Max_cycle;Signal;HPM_P1;HPM_P2
2022/08/14 00:02:04;;;;;;;;;;;;;;;;;;5002146;28;20074;-60
2022/08/14 00:04:30;;;;;;;5.40;2.80;;;;;;;;;;5007707;28;19929;-61
2022/08/14 00:06:57;;;;;;;6.18;2.72;;;;;;;;;;4989405;28;20058;-62
2022/08/14 00:09:23;;;;;;;8.60;2.85;;;;;;;;;;5004487;28;20062;-60
2022/08/14 00:11:50;;;;;;;5.70;2.97;;;;;;;;;;4994564;28;20097;-61
2022/08/14 00:14:17;;;;;;;5.10;2.63;;;;;;;;;;5006514;28;20057;-60
2022/08/14 00:16:45;;;;;;;8.57;3.97;;;;;;;;;;5001468;28;20065;-61
2022/08/14 00:19:12;;;;;;;5.32;2.72;;;;;;;;;;5007426;28;20393;-61
2022/08/14 00:21:39;;;;;;;5.40;2.83;;;;;;;;;;5002499;28;20057;-61
2022/08/14 00:24:06;;;;;;;7.28;3.28;;;;;;;;;;5007061;28;20050;-61
2022/08/14 00:26:32;;;;;;;6.72;3.65;;;;;;;;;;5001773;28;20053;-60
2022/08/14 00:28:58;;;;;;;8.70;3.15;;;;;;;;;;5007670;28;20082;-62
2022/08/14 00:31:27;;;;;;;7.05;2.50;;;;;;;;;;5002945;28;20131;-61
2022/08/14 00:33:55;;;;;;;5.30;2.83;;;;;;;;;;5008257;28;20049;-60
2022/08/14 00:36:23;;;;;;;6.22;3.30;;;;;;;;;;4990242;28;20057;-61
2022/08/14 00:38:49;;;;;;;6.10;3.30;;;;;;;;;;5004533;28;20064;-61
2022/08/14 00:41:18;;;;;;;8.13;3.40;;;;;;;;;;5006772;28;20300;-61
2022/08/14 00:43:45;;;;;;;5.55;2.75;;;;;;;;;;5001667;28;20096;-60
2022/08/14 00:46:12;;;;;;;9.85;3.22;;;;;;;;;;5006077;28;20049;-59
2022/08/14 00:48:39;;;;;;;9.23;3.88;;;;;;;;;;5001754;28;20053;-58
2022/08/14 00:51:09;;;;;;;8.60;3.45;;;;;;;;;;5017772;28;20080;-59
2022/08/14 00:53:36;;;;;;;5.32;3.00;;;;;;;;;;5007817;28;20041;-61
2022/08/14 00:56:02;;;;;;;5.72;3.15;;;;;;;;;;5007033;28;20069;-59
2022/08/14 00:58:31;;;;;;;4.93;2.72;;;;;;;;;;5002460;28;20127;-61
2022/08/14 01:00:59;;;;;;;6.10;3.38;;;;;;;;;;5007287;28;20054;-60
2022/08/14 01:03:28;;;;;;;7.97;2.83;;;;;;;;;;5007443;28;20049;-59
2022/08/14 01:05:55;;;;;;;6.05;3.05;;;;;;;;;;5002446;28;20053;-60
2022/08/14 01:08:24;;;;;;;6.10;2.95;;;;;;;;;;4985110;28;20038;-61
2022/08/14 01:10:51;;;;;;;6.53;2.60;;;;;;;;;;5005405;28;20057;-62
2022/08/14 01:13:20;;;;;;;5.22;2.75;;;;;;;;;;5017493;28;20049;-61
2022/08/14 01:15:48;;;;;;;5.63;3.30;;;;;;;;;;5007027;28;20066;-60
2022/08/14 01:21:07;;;;;;;6.03;2.90;;;;;;;;;;5006492;28;20050;-59
2022/08/14 01:23:38;;;;;;;5.30;3.08;;;;;;;;;;5002050;28;20149;-59
2022/08/14 01:26:05;;;;;;;7.65;3.00;;;;;;;;;;5006477;28;20049;-59
2022/08/14 01:28:36;;;;;;;8.10;3.08;;;;;;;;;;5002109;28;20050;-60
2022/08/14 01:31:05;;;;;;;12.07;4.20;;;;;;;;;;4996285;28;20104;-60
2022/08/14 01:33:43;;;;;;;5.43;3.03;;;;;;;;;;5008716;28;20049;-60
2022/08/14 01:36:09;;;;;;;;;;;;;;;;;;5005767;28;20054;-59
2022/08/14 01:38:40;;;;;;;5.05;2.75;;;;;;;;;;5003190;28;19925;-58
2022/08/14 01:41:07;;;;;;;4.75;2.80;;;;;;;;;;5016237;28;20108;-58
2022/08/14 01:43:42;;;;;;;8.52;3.15;;;;;;;;;;5005956;28;20081;-60
2022/08/14 01:46:10;;;;;;;7.05;2.83;;;;;;;;;;5000593;28;20054;-59
2022/08/14 01:48:37;;;;;;;6.60;3.60;;;;;;;;;;5006311;28;20133;-59
2022/08/14 01:51:04;;;;;;;8.90;3.85;;;;;;;;;;5013660;28;20059;-58
2022/08/14 01:53:31;;;;;;;5.50;3.20;;;;;;;;;;5026959;28;20052;-59
2022/08/14 01:56:02;;;;;;;5.05;2.90;;;;;;;;;;5009145;28;20050;-60
2022/08/14 01:58:28;;;;;;;8.45;3.85;;;;;;;;;;5007161;28;20112;-60
2022/08/14 02:00:57;;;;;;;10.25;3.22;;;;;;;;;;4999172;28;20058;-61
2022/08/14 02:03:25;;;;;;;6.55;2.88;;;;;;;;;;5005996;28;20212;-60
2022/08/14 02:05:51;;;;;;;8.40;3.78;;;;;;;;;;4999732;28;20054;-59
2022/08/14 02:08:18;;;;;;;5.40;3.08;;;;;;;;;;5005570;28;20053;-60
2022/08/14 02:11:15;;;;;;;6.82;3.65;;;;;;;;;;5002940;28;20451;-59
2022/08/14 02:13:33;;;;;;;7.78;3.65;;;;;;;;;;5007940;28;20072;-60
2022/08/14 02:16:00;;;;;;;7.13;4.18;;;;;;;;;;5003901;28;20148;-59
2022/08/14 02:18:27;;;;;;;6.00;3.33;;;;;;;;;;5009166;28;20125;-59
2022/08/14 02:20:53;;;;;;;7.78;3.05;;;;;;;;;;5003256;28;20046;-59
2022/08/14 02:23:20;;;;;;;6.82;3.25;;;;;;;;;;5009094;28;20050;-58
2022/08/14 02:25:47;;;;;;;11.00;4.60;;;;;;;;;;5004069;28;20109;-61
2022/08/14 02:28:13;;;;;;;6.63;3.03;;;;;;;;;;5008609;28;20042;-59
2022/08/14 02:30:44;;;;;;;6.10;3.33;;;;;;;;;;5008790;28;20049;-59
2022/08/14 02:33:12;;;;;;;5.40;3.30;;;;;;;;;;5003709;28;20062;-61
2022/08/14 02:35:40;;;;;;;5.20;3.30;;;;;;;;;;5008863;28;20057;-59
2022/08/14 02:38:07;;;;;;;6.35;3.42;;;;;;;;;;5003823;28;20068;-60
2022/08/14 02:40:35;;;;;;;8.63;3.92;;;;;;;;;;5008945;28;20058;-61
2022/08/14 02:43:01;;;;;;;5.93;3.35;;;;;;;;;;5003493;28;20095;-61
2022/08/14 02:45:32;;;;;;;5.78;3.33;;;;;;;;;;5009269;28;20112;-60
2022/08/14 02:48:00;;;;;;;9.05;4.00;;;;;;;;;;5004188;28;20062;-60
2022/08/14 02:53:49;;;;;;;5.57;2.92;;;;;;;;;;5010239;28;20040;-60
2022/08/14 02:56:18;;;;;;;6.43;3.65;;;;;;;;;;5025528;28;20058;-59
2022/08/14 02:58:45;;;;;;;;;;;;;;;;;;5025641;28;20050;-61
2022/08/14 03:01:12;;;;;;;5.50;3.13;;;;;;;;;;5025744;28;19925;-59
2022/08/14 03:03:41;;;;;;;8.82;3.33;;;;;;;;;;5009213;28;20100;-59
2022/08/14 03:06:08;;;;;;;6.22;3.20;;;;;;;;;;5025327;28;20068;-59
2022/08/14 03:08:36;;;;;;;6.43;3.63;;;;;;;;;;5025517;28;20111;-58
2022/08/14 03:11:05;;;;;;;7.43;3.80;;;;;;;;;;5028208;28;20046;-59
2022/08/14 03:13:34;;;;;;;11.68;4.57;;;;;;;;;;5011745;28;20057;-59
2022/08/14 03:16:01;;;;;;;6.30;3.33;;;;;;;;;;5027807;28;20062;-58
2022/08/14 03:18:31;;;;;;;7.80;3.28;;;;;;;;;;5027921;28;20062;-58
2022/08/14 03:21:00;;;;;;;4.53;2.85;;;;;;;;;;5010818;28;20128;-61
2022/08/14 03:23:26;;;;;;;9.55;4.03;;;;;;;;;;5027887;28;20042;-60
2022/08/14 03:25:53;;;;;;;6.47;3.53;;;;;;;;;;5025709;28;20065;-58
2022/08/14 03:28:25;;;;;;;5.63;3.03;;;;;;;;;;5025906;28;20123;-59
2022/08/14 03:30:52;;;;;;;6.60;4.05;;;;;;;;;;5024133;28;20081;-58
2022/08/14 03:33:19;;;;;;;6.93;3.65;;;;;;;;;;5025225;28;20096;-60
2022/08/14 03:35:46;;;;;;;12.40;3.88;;;;;;;;;;5008947;28;20112;-59
2022/08/14 03:38:17;;;;;;;6.93;3.70;;;;;;;;;;5023237;28;20096;-59
2022/08/14 03:40:45;;;;;;;6.00;3.08;;;;;;;;;;5008780;28;20105;-58
2022/08/14 03:43:12;;;;;;;11.55;5.22;;;;;;;;;;5025383;28;20045;-59
2022/08/14 03:45:40;;;;;;;8.20;4.43;;;;;;;;;;5008601;28;20049;-58
2022/08/14 03:48:14;;;;;;;7.25;3.90;;;;;;;;;;5024265;28;20050;-58
2022/08/14 03:50:41;;;;;;;6.22;3.42;;;;;;;;;;5025116;28;20058;-58
2022/08/14 03:53:08;;;;;;;6.67;3.47;;;;;;;;;;5017195;28;20061;-60
2022/08/14 03:55:37;;;;;;;6.63;3.50;;;;;;;;;;5025090;28;20293;-58
2022/08/14 03:58:05;;;;;;;6.53;3.38;;;;;;;;;;5024213;28;20057;-60
2022/08/14 04:00:32;;;;;;;5.50;2.92;;;;;;;;;;5025041;28;20062;-60
2022/08/14 04:02:59;;;;;;;7.13;4.13;;;;;;;;;;5004521;22;20051;-59
2022/08/14 04:05:26;;;;;;;5.80;3.30;;;;;;;;;;4942289;28;20066;-61
2022/08/14 04:07:52;;;;;;;6.60;3.20;;;;;;;;;;4984695;28;20061;-59
2022/08/14 04:10:19;;;;;;;6.55;3.70;;;;;;;;;;4969637;28;20113;-61
2022/08/14 04:12:48;;;;;;;6.03;3.15;;;;;;;;;;4952889;28;20043;-60
2022/08/14 04:15:18;;;;;;;4.68;2.90;;;;;;;;;;4969048;28;20106;-60
2022/08/14 04:17:47;;;;;;;7.38;3.38;;;;;;;;;;4961268;28;20067;-61
2022/08/14 04:20:14;;;;;;;6.53;3.45;;;;;;;;;;4968344;28;20061;-61
2022/08/14 04:22:42;;;;;;;8.15;3.47;;;;;;;;;;4959585;28;20143;-62
2022/08/14 04:25:09;;;;;;;7.40;3.33;;;;;;;;;;4949309;28;20138;-60
2022/08/14 04:27:36;;;;;;;6.90;3.35;;;;;;;;;;4984154;28;20121;-61
2022/08/14 04:30:05;;;;;;;6.55;3.38;;;;;;;;;;5001912;28;20078;-61
2022/08/14 04:32:32;;;;;;;6.35;3.35;;;;;;;;;;4964439;28;20063;-64
2022/08/14 04:35:00;;;;;;;5.80;3.28;;;;;;;;;;4966249;28;20051;-60
2022/08/14 04:45:41;;;;;;;6.00;3.30;;;;;;;;;;4962817;28;20046;-62
2022/08/14 04:48:14;;;;;;;6.47;3.40;;;;;;;;;;4968077;28;20165;-59
2022/08/14 04:50:43;;;;;;;6.40;3.42;;;;;;;;;;4968759;28;20069;-62
2022/08/14 04:53:11;;;;;;;7.85;3.83;;;;;;;;;;4987968;28;20138;-61
2022/08/14 04:55:39;;;;;;;7.45;3.13;;;;;;;;;;4974300;28;20047;-62
2022/08/14 04:58:05;;;;;;;5.90;3.22;;;;;;;;;;4969185;28;20058;-62
2022/08/14 05:00:32;;;;;;;6.88;3.50;;;;;;;;;;4965964;28;20042;-60
2022/08/14 05:03:04;;;;;;;5.10;3.08;;;;;;;;;;4999520;28;20050;-62
2022/08/14 05:05:31;;;;;;;7.35;3.92;;;;;;;;;;4996265;28;20090;-60
2022/08/14 05:08:07;;;;;;;6.47;3.80;;;;;;;;;;4960015;28;20059;-63
2022/08/14 05:10:36;;;;;;;5.40;2.97;;;;;;;;;;4979036;28;20069;-61
2022/08/14 05:13:04;;;;;;;5.97;3.15;;;;;;;;;;4962331;28;20078;-62
2022/08/14 05:15:34;;;;;;;7.20;3.78;;;;;;;;;;4968671;28;20061;-62
2022/08/14 05:18:02;;;;;;;8.27;3.80;;;;;;;;;;4961888;28;20055;-62
2022/08/14 05:20:29;;;;;;;7.32;3.70;;;;;;;;;;4968611;28;20054;-64
2022/08/14 05:22:57;;;;;;;8.23;4.05;;;;;;;;;;4956489;28;20065;-62
2022/08/14 05:25:24;;;;;;;6.68;3.50;;;;;;;;;;4966712;28;20059;-60
2022/08/14 05:27:51;;;;;;;8.40;4.60;;;;;;;;;;4967419;28;20077;-60
2022/08/14 05:30:18;;;;;;;8.80;4.20;;;;;;;;;;4959999;28;20078;-60
2022/08/14 05:32:45;;;;;;;10.73;4.72;;;;;;;;;;4965553;28;20148;-61
2022/08/14 05:35:13;;;;;;;10.25;4.32;;;;;;;;;;4959601;28;20144;-62
2022/08/14 05:37:40;;;;;;;8.60;3.97;;;;;;;;;;4966449;28;20081;-61
2022/08/14 05:40:09;;;;;;;9.77;5.10;;;;;;;;;;4960444;28;20059;-62
2022/08/14 05:42:37;;;;;;;11.43;5.03;;;;;;;;;;4983508;28;20137;-62
2022/08/14 05:45:06;;;;;;;6.38;3.80;;;;;;;;;;4961578;28;20062;-61
2022/08/14 05:47:33;;;;;;;9.95;4.72;;;;;;;;;;4969167;28;20165;-62
2022/08/14 05:50:00;;;;;;;6.77;3.90;;;;;;;;;;4971425;28;20087;-62
2022/08/14 05:52:30;;;;;;;6.20;3.67;;;;;;;;;;4963449;28;20306;-61
2022/08/14 05:54:57;;;;;;;6.78;3.60;;;;;;;;;;4969786;28;20063;-62
2022/08/14 05:57:24;;;;;;;8.20;3.53;;;;;;;;;;4962923;28;20061;-62
2022/08/14 05:59:50;;;;;;;7.18;3.67;;;;;;;;;;4970584;28;20058;-62
2022/08/14 06:02:17;;;;;;;6.38;3.50;;;;;;;;;;4995032;28;20081;-62
2022/08/14 06:04:47;;;;;;;6.40;3.50;;;;;;;;;;4971420;28;20062;-61
2022/08/14 06:07:14;;;;;;;6.05;3.40;;;;;;;;;;4968004;28;20065;-62
2022/08/14 06:09:42;;;;;;;8.63;3.95;;;;;;;;;;4964671;28;20051;-63
2022/08/14 06:12:09;;;;;;;9.30;4.78;;;;;;;;;;4968623;28;20055;-61
2022/08/14 06:14:37;;;;;;;11.90;5.68;;;;;;;;;;4961153;28;20118;-62
2022/08/14 06:17:03;;;;;;;10.23;5.30;;;;;;;;;;4967884;28;20053;-62
2022/08/14 06:19:30;;;;;;;7.43;3.47;;;;;;;;;;4962444;28;20058;-62
2022/08/14 06:21:57;;;;;;;9.82;4.95;;;;;;;;;;4970386;28;20065;-61
2022/08/14 06:24:25;;;;;;;8.07;4.53;;;;;;;;;;4965276;28;20082;-60
2022/08/14 06:26:53;;;;;;;10.27;4.10;;;;;;;;;;4969163;28;20051;-62
2022/08/14 06:29:20;;;;;;;7.45;4.47;;;;;;;;;;4964865;28;20055;-63
2022/08/14 06:31:47;;;;;;;9.82;4.78;;;;;;;;;;4971331;28;20059;-62
2022/08/14 06:34:13;;;;;;;9.25;5.38;;;;;;;;;;4963068;28;20054;-63
2022/08/14 06:36:40;;;;;;;10.57;5.13;;;;;;;;;;4964454;28;20047;-61
2022/08/14 06:39:06;;;;;;;10.38;5.38;;;;;;;;;;4969277;28;20090;-61
2022/08/14 06:41:33;;;;;;;9.95;4.88;;;;;;;;;;4998035;28;20055;-61
2022/08/14 06:44:04;;;;;;;7.97;4.07;;;;;;;;;;4969889;28;20106;-62
2022/08/14 06:46:31;;;;;;;6.68;3.83;;;;;;;;;;4997995;28;20129;-61
2022/08/14 06:48:57;;;;;;;9.60;4.30;;;;;;;;;;4970185;28;20059;-62
2022/08/14 06:51:24;;;;;;;11.30;4.50;;;;;;;;;;4963135;28;20142;-62
2022/08/14 06:53:51;;;;;;;8.93;4.95;;;;;;;;;;4970220;28;20061;-63
2022/08/14 06:56:18;;;;;;;6.35;3.67;;;;;;;;;;4962683;28;20089;-62
2022/08/14 06:58:45;;;;;;;9.95;4.78;;;;;;;;;;4970108;28;20056;-62
2022/08/14 07:06:42;;;;;;;9.48;4.30;;;;;;;;;;4963737;28;20116;-63
2022/08/14 07:09:10;;;;;;;10.95;4.82;;;;;;;;;;4970024;28;20062;-61
2022/08/14 07:11:37;;;;;;;;;;;;;;;;;;4963254;28;20063;-62
2022/08/14 07:14:04;;;;;;;8.65;4.10;;;;;;;;;;4969323;28;19973;-62
2022/08/14 07:16:32;;;;;;;8.23;3.85;;;;;;;;;;4963587;28;20059;-62
2022/08/14 07:18:59;;;;;;;11.48;5.63;;;;;;;;;;4969471;28;20054;-61
2022/08/14 07:21:25;;;;;;;7.68;3.80;;;;;;;;;;4963582;28;20118;-61
2022/08/14 07:23:52;;;;;;;8.73;4.60;;;;;;;;;;4969226;28;20054;-61
2022/08/14 07:26:19;;;;;;;9.45;4.82;;;;;;;;;;4968818;28;20063;-61
2022/08/14 07:28:45;;;;;;;7.78;4.25;;;;;;;;;;4995855;28;20066;-61
2022/08/14 07:31:12;;;;;;;9.35;4.47;;;;;;;;;;4968558;28;20070;-61
2022/08/14 07:33:44;;;;;;;9.88;4.43;;;;;;;;;;4966111;28;20088;-61
2022/08/14 07:36:12;;;;;;;8.48;3.83;;;;;;;;;;4969542;28;20138;-61
2022/08/14 07:38:39;;;;;;;9.02;4.10;;;;;;;;;;4962872;28;20051;-61
2022/08/14 07:41:10;;;;;;;8.30;4.10;;;;;;;;;;4969577;28;20059;-59
2022/08/14 07:43:38;;;;;;;8.25;4.05;;;;;;;;;;4962019;28;20055;-62
2022/08/14 07:46:06;;;;;;;7.30;3.88;;;;;;;;;;4969390;28;20126;-62
2022/08/14 07:48:37;;;;;;;6.50;3.47;;;;;;;;;;4963936;28;20145;-62
2022/08/14 07:51:05;;;;;;;9.43;5.13;;;;;;;;;;4979340;28;20054;-61
2022/08/14 07:53:38;;;;;;;7.25;4.25;;;;;;;;;;4973666;28;20062;-60
2022/08/14 07:56:05;;;;;;;9.52;4.75;;;;;;;;;;5000847;28;20059;-61
2022/08/14 07:58:32;;;;;;;7.47;4.07;;;;;;;;;;4964015;28;20054;-63
2022/08/14 08:00:58;;;;;;;6.97;4.00;;;;;;;;;;4969177;28;20078;-63
2022/08/14 08:03:26;;;;;;;7.53;3.78;;;;;;;;;;4976596;28;20045;-63
2022/08/14 08:05:52;;;;;;;10.38;5.25;;;;;;;;;;4988914;28;20054;-59
2022/08/14 08:08:21;;;;;;;7.50;3.88;;;;;;;;;;4981591;28;20058;-60
2022/08/14 08:10:50;;;;;;;8.43;4.32;;;;;;;;;;4957103;28;20135;-60
2022/08/14 08:13:18;;;;;;;9.88;5.70;;;;;;;;;;4948125;28;20063;-63
2022/08/14 08:15:46;;;;;;;7.53;4.30;;;;;;;;;;4963233;28;20085;-60
2022/08/14 08:18:14;;;;;;;10.00;4.17;;;;;;;;;;4976163;28;20061;-62
2022/08/14 08:20:42;;;;;;;9.15;5.03;;;;;;;;;;4963148;28;20090;-60
2022/08/14 08:23:11;;;;;;;11.90;5.05;;;;;;;;;;4969335;28;20073;-63
2022/08/14 08:25:41;;;;;;;8.07;4.28;;;;;;;;;;4964037;28;20053;-63
2022/08/14 08:28:09;;;;;;;7.20;4.00;;;;;;;;;;4968710;28;20070;-62
2022/08/14 08:30:37;;;;;;;8.23;4.10;;;;;;;;;;4964595;28;20058;-62
2022/08/14 08:33:04;;;;;;;6.80;3.80;;;;;;;;;;4962585;28;20097;-62
2022/08/14 08:35:32;;;;;;;11.38;5.28;;;;;;;;;;4977267;28;20051;-59
2022/08/14 08:38:02;;;;;;;9.43;5.30;;;;;;;;;;4969789;28;20047;-63
2022/08/14 08:40:30;;;;;;;7.70;4.45;;;;;;;;;;4972734;28;20126;-63
2022/08/14 08:42:59;;;;;;;9.45;4.53;;;;;;;;;;4995341;28;20097;-62
2022/08/14 08:45:25;;;;;;;10.38;5.38;;;;;;;;;;4952378;28;20055;-62
2022/08/14 08:47:52;;;;;;;10.70;5.13;;;;;;;;;;4984291;28;20070;-63
2022/08/14 08:50:20;;;;;;;10.88;4.63;;;;;;;;;;4980267;28;20065;-61
2022/08/14 08:52:49;;;;;;;7.82;4.20;;;;;;;;;;4985171;28;20055;-62
2022/08/14 08:55:16;;;;;;;8.40;4.15;;;;;;;;;;4963152;28;20074;-62
2022/08/14 08:57:43;;;;;;;7.37;4.47;;;;;;;;;;4967835;28;20112;-62
2022/08/14 09:00:30;;;;;;;9.38;5.53;;;;;;;;;;4954027;28;20092;-59
2022/08/14 09:03:00;;;;;;;7.80;4.85;;;;;;;;;;4948251;28;20062;-61
2022/08/14 09:05:27;;;;;;;10.32;5.53;;;;;;;;;;4946389;28;20062;-62
2022/08/14 09:07:54;;;;;;;8.32;4.82;;;;;;;;;;4995248;28;20046;-61
2022/08/14 09:10:20;;;;;;;13.02;5.45;;;;;;;;;;4988068;28;20051;-59
2022/08/14 09:12:47;;;;;;;9.40;4.30;;;;;;;;;;4964190;28;20054;-63
2022/08/14 09:15:15;;;;;;;10.73;5.30;;;;;;;;;;4967239;28;20070;-59
2022/08/14 09:17:43;;;;;;;9.65;4.90;;;;;;;;;;4963135;28;20059;-63
2022/08/14 09:20:10;;;;;;;8.82;5.13;;;;;;;;;;4969632;28;20059;-61
2022/08/14 09:22:38;;;;;;;9.50;4.90;;;;;;;;;;4966814;28;20050;-61
2022/08/14 09:25:05;;;;;;;7.57;4.30;;;;;;;;;;4972794;28;20057;-62
2022/08/14 09:27:32;;;;;;;9.95;4.55;;;;;;;;;;4965840;28;20051;-62
2022/08/14 09:29:59;;;;;;;12.57;5.80;;;;;;;;;;4972053;28;20066;-60
2022/08/14 09:32:32;;;;;;;7.40;4.28;;;;;;;;;;4964992;28;20077;-61
2022/08/14 09:35:03;;;;;;;7.20;4.10;;;;;;;;;;4970220;28;20058;-62
2022/08/14 09:37:34;;;;;;;9.02;4.63;;;;;;;;;;4963511;28;20047;-61
2022/08/14 09:40:07;;;;;;;6.80;4.18;;;;;;;;;;4967280;28;20055;-63
2022/08/14 09:42:47;;;;;;;7.03;4.10;;;;;;;;;;4964379;28;20145;-63
2022/08/14 09:45:15;;;;;;;7.10;4.22;;;;;;;;;;5003312;28;20047;-63
2022/08/14 09:47:47;;;;;;;9.65;5.38;;;;;;;;;;4964195;28;20090;-60
2022/08/14 09:50:21;;;;;;;8.55;4.40;;;;;;;;;;4969920;28;20109;-61
2022/08/14 09:52:52;;;;;;;9.20;4.60;;;;;;;;;;4962726;28;20053;-62
2022/08/14 09:55:20;;;;;;;7.82;4.57;;;;;;;;;;4972033;28;20047;-62
2022/08/14 09:57:46;;;;;;;6.30;3.77;;;;;;;;;;4965856;28;20055;-62
2022/08/14 10:00:17;;;;;;;7.32;4.15;;;;;;;;;;4969907;28;20042;-60
2022/08/14 10:02:53;;;;;;;8.57;4.03;;;;;;;;;;4964033;28;20058;-63
2022/08/14 10:05:30;;;;;;;6.00;3.83;;;;;;;;;;4970059;28;20058;-63
2022/08/14 10:07:57;;;;;;;9.88;4.30;;;;;;;;;;4963790;28;20046;-60
2022/08/14 10:10:28;;;;;;;6.90;4.27;;;;;;;;;;4968905;28;20063;-61
2022/08/14 10:12:57;;;;;;;9.63;4.53;;;;;;;;;;4970310;28;20050;-60
2022/08/14 10:15:25;;;;;;;6.13;3.83;;;;;;;;;;4968587;28;20065;-62
2022/08/14 10:17:51;;;;;;;;;;;;;;;;;;4969110;28;20063;-62
2022/08/14 10:20:33;;;;;;;7.45;3.97;;;;;;;;;;4964815;28;19922;-61
2022/08/14 10:23:08;;;;;;;11.43;4.10;;;;;;;;;;4969773;28;20059;-63
2022/08/14 10:25:42;;;;;;;6.18;3.75;;;;;;;;;;4964631;28;20077;-60
2022/08/14 10:28:09;;;;;;;12.45;4.03;;;;;;;;;;4969705;28;20061;-62
2022/08/14 10:30:36;;;;;;;6.07;3.65;;;;;;;;;;4963535;28;20062;-62
2022/08/14 10:33:04;;;;;;;7.05;4.13;;;;;;;;;;4985725;28;20129;-61
2022/08/14 10:35:40;;;;;;;7.82;3.78;;;;;;;;;;4964699;28;20113;-62
2022/08/14 10:38:07;;;;;;;8.10;3.63;;;;;;;;;;5002227;28;20054;-61
2022/08/14 10:40:34;;;;;;;6.43;3.75;;;;;;;;;;4964331;28;20086;-61
2022/08/14 10:43:01;;;;;;;6.60;3.97;;;;;;;;;;4970026;28;20090;-62
2022/08/14 10:45:31;;;;;;;7.90;3.97;;;;;;;;;;4963108;28;20055;-62
2022/08/14 10:47:57;;;;;;;8.48;4.57;;;;;;;;;;4969286;28;20333;-62
2022/08/14 10:50:31;;;;;;;8.15;3.80;;;;;;;;;;4963359;28;20042;-62
2022/08/14 10:53:00;;;;;;;10.32;4.25;;;;;;;;;;4969637;28;20149;-62
2022/08/14 10:55:38;;;;;;;6.28;3.45;;;;;;;;;;4964433;28;20057;-62
2022/08/14 10:58:09;;;;;;;5.60;3.50;;;;;;;;;;4967160;28;20117;-63
2022/08/14 11:00:36;;;;;;;10.35;4.18;;;;;;;;;;4978950;28;20050;-62
2022/08/14 11:03:08;;;;;;;5.53;3.38;;;;;;;;;;4969114;28;20058;-62
2022/08/14 11:05:40;;;;;;;5.60;3.50;;;;;;;;;;4981525;28;20089;-62
2022/08/14 11:08:10;;;;;;;7.35;3.75;;;;;;;;;;4970522;28;20066;-62
2022/08/14 11:10:46;;;;;;;6.35;3.60;;;;;;;;;;4959608;28;20068;-63
2022/08/14 11:13:17;;;;;;;5.57;3.22;;;;;;;;;;4967594;28;20161;-63
2022/08/14 11:15:45;;;;;;;7.28;3.38;;;;;;;;;;4967493;28;20087;-62
2022/08/14 11:18:12;;;;;;;5.25;3.30;;;;;;;;;;4962186;28;20054;-63
2022/08/14 11:20:39;;;;;;;6.13;3.15;;;;;;;;;;4968375;28;20042;-60
2022/08/14 11:23:07;;;;;;;11.23;4.05;;;;;;;;;;4959614;28;20062;-63
2022/08/14 11:25:36;;;;;;;5.80;3.20;;;;;;;;;;4968840;28;20048;-62
2022/08/14 11:28:04;;;;;;;5.45;3.10;;;;;;;;;;4960195;28;20055;-61
2022/08/14 11:30:31;;;;;;;6.85;3.60;;;;;;;;;;4967340;28;20062;-63
2022/08/14 11:32:59;;;;;;;6.88;3.30;;;;;;;;;;4961021;28;20062;-63
2022/08/14 11:35:26;;;;;;;5.47;3.20;;;;;;;;;;4966062;28;20050;-62
2022/08/14 11:37:54;;;;;;;5.30;3.08;;;;;;;;;;4959874;28;20085;-64
2022/08/14 11:40:22;;;;;;;10.15;3.30;;;;;;;;;;4959714;28;20054;-62
2022/08/14 11:42:51;;;;;;;5.57;3.30;;;;;;;;;;4968104;28;20061;-62
2022/08/14 11:45:18;;;;;;;6.38;3.35;;;;;;;;;;4958858;28;20256;-62
2022/08/14 11:47:44;;;;;;;5.95;3.05;;;;;;;;;;4966541;28;20055;-63
2022/08/14 11:50:12;;;;;;;5.45;3.00;;;;;;;;;;4991031;28;20058;-62
2022/08/14 11:52:38;;;;;;;4.90;2.70;;;;;;;;;;5000147;28;20059;-63
2022/08/14 11:55:11;;;;;;;6.65;3.30;;;;;;;;;;4965445;28;20310;-62
2022/08/14 11:57:38;;;;;;;6.03;3.25;;;;;;;;;;4962676;28;20077;-63
2022/08/14 12:00:08;;;;;;;4.90;2.80;;;;;;;;;;4967629;28;20051;-62
2022/08/14 12:02:35;;;;;;;6.65;3.30;;;;;;;;;;4950935;28;20066;-62
2022/08/14 12:05:02;;;;;;;5.25;3.15;;;;;;;;;;4965644;28;20114;-63
2022/08/14 12:07:29;;;;;;;4.63;3.00;;;;;;;;;;4958205;28;20066;-63
2022/08/14 12:09:58;;;;;;;7.85;3.03;;;;;;;;;;4958523;28;20065;-63
2022/08/14 12:12:26;;;;;;;4.65;2.65;;;;;;;;;;4958753;28;20602;-61
2022/08/14 12:14:55;;;;;;;6.40;2.85;;;;;;;;;;4967222;28;20105;-63
2022/08/14 12:17:24;;;;;;;5.25;3.13;;;;;;;;;;4961503;28;20051;-62
2022/08/14 12:19:52;;;;;;;6.53;2.97;;;;;;;;;;4963232;28;20059;-63
2022/08/14 12:22:19;;;;;;;5.03;2.85;;;;;;;;;;4967856;28;20065;-63
2022/08/14 12:24:49;;;;;;;10.30;3.37;;;;;;;;;;4959482;28;20145;-63
2022/08/14 12:27:16;;;;;;;6.50;3.08;;;;;;;;;;4967172;28;20057;-64
2022/08/14 12:29:50;;;;;;;11.32;3.20;;;;;;;;;;4991450;28;20081;-60
2022/08/14 12:32:17;;;;;;;4.72;2.63;;;;;;;;;;4997798;28;20131;-60
2022/08/14 12:34:52;;;;;;;5.07;2.85;;;;;;;;;;4959520;28;20117;-60
2022/08/14 12:37:18;;;;;;;4.75;2.70;;;;;;;;;;4998852;28;20089;-61
2022/08/14 12:39:45;;;;;;;6.03;3.28;;;;;;;;;;4962596;28;20042;-63
2022/08/14 12:42:15;;;;;;;4.95;2.85;;;;;;;;;;4962478;28;20069;-60
2022/08/14 12:44:42;;;;;;;5.50;3.15;;;;;;;;;;4966638;28;20110;-60
2022/08/14 12:47:13;;;;;;;5.55;3.03;;;;;;;;;;4956908;28;20069;-60
2022/08/14 12:49:52;;;;;;;6.38;2.85;;;;;;;;;;4965902;28;20054;-58
2022/08/14 12:52:28;;;;;;;4.25;2.88;;;;;;;;;;4958457;28;20078;-59
2022/08/14 12:54:57;;;;;;;6.13;2.80;;;;;;;;;;4964912;28;20051;-58
2022/08/14 12:57:33;;;;;;;4.82;3.00;;;;;;;;;;4959199;28;20069;-60
2022/08/14 13:00:05;;;;;;;6.35;2.88;;;;;;;;;;4966555;28;20054;-58
2022/08/14 13:02:36;;;;;;;6.00;3.35;;;;;;;;;;4953176;28;20113;-60
2022/08/14 13:05:05;;;;;;;6.00;3.00;;;;;;;;;;4965541;28;20058;-60
2022/08/14 13:07:32;;;;;;;5.53;2.97;;;;;;;;;;4959359;28;20061;-61
2022/08/14 13:09:58;;;;;;;4.47;2.63;;;;;;;;;;4964286;28;20047;-62
2022/08/14 13:12:28;;;;;;;4.55;2.47;;;;;;;;;;4968027;28;20054;-60
2022/08/14 13:14:57;;;;;;;5.72;2.85;;;;;;;;;;4958543;28;20051;-60
2022/08/14 13:17:24;;;;;;;4.43;2.55;;;;;;;;;;4965741;28;20082;-59
2022/08/14 13:19:53;;;;;;;5.53;3.03;;;;;;;;;;4957352;28;20063;-57
2022/08/14 13:22:25;;;;;;;7.53;3.72;;;;;;;;;;4998892;28;20341;-59
2022/08/14 13:24:52;;;;;;;6.97;3.15;;;;;;;;;;4958215;28;20129;-58
2022/08/14 13:27:20;;;;;;;5.60;2.83;;;;;;;;;;4957012;28;20066;-60
2022/08/14 13:29:46;;;;;;;;;;;;;;;;;;4963153;28;20119;-59
2022/08/14 13:32:13;;;;;;;5.57;3.05;;;;;;;;;;4962031;28;19934;-59
2022/08/14 13:34:42;;;;;;;5.40;3.15;;;;;;;;;;4999063;28;20051;-58
2022/08/14 13:37:09;;;;;;;4.57;2.80;;;;;;;;;;4957398;28;20059;-58
2022/08/14 13:39:38;;;;;;;5.35;3.05;;;;;;;;;;4966066;28;20058;-58
2022/08/14 13:42:10;;;;;;;6.03;3.38;;;;;;;;;;4989039;28;20050;-60
2022/08/14 13:44:38;;;;;;;5.32;3.08;;;;;;;;;;4966125;28;20058;-61
2022/08/14 13:47:05;;;;;;;;;;;;;;;;;;4957063;28;20105;-61
2022/08/14 13:49:32;;;;;;;6.97;3.58;;;;;;;;;;4965295;28;19960;-58
2022/08/14 13:52:01;;;;;;;5.50;2.75;;;;;;;;;;4965852;28;20074;-58
2022/08/14 13:54:31;;;;;;;5.03;3.15;;;;;;;;;;4958929;28;20074;-59
2022/08/14 13:57:02;;;;;;;4.40;2.70;;;;;;;;;;4966415;28;20043;-59
2022/08/14 13:59:31;;;;;;;4.80;3.03;;;;;;;;;;4958111;28;20047;-60
2022/08/14 14:01:59;;;;;;;4.43;2.67;;;;;;;;;;4961587;28;20126;-60
2022/08/14 14:04:29;;;;;;;4.80;2.65;;;;;;;;;;4957979;28;20070;-59
2022/08/14 14:06:56;;;;;;;7.70;3.55;;;;;;;;;;4965727;28;20065;-61
2022/08/14 14:09:26;;;;;;;6.10;3.40;;;;;;;;;;4962794;28;20181;-60
2022/08/14 14:11:54;;;;;;;4.82;3.08;;;;;;;;;;4969795;28;20294;-59
2022/08/14 14:14:20;;;;;;;;;;;;;;;;;;4970149;28;20133;-60
2022/08/14 14:16:49;;;;;;;5.72;2.53;;;;;;;;;;4961523;28;19933;-59
2022/08/14 14:19:18;;;;;;;5.60;2.97;;;;;;;;;;4967865;28;20071;-60
2022/08/14 14:21:49;;;;;;;5.22;3.08;;;;;;;;;;4959905;28;20074;-57
2022/08/14 14:24:16;;;;;;;4.55;2.67;;;;;;;;;;4969828;28;20134;-60
2022/08/14 14:26:47;;;;;;;4.45;2.80;;;;;;;;;;4960064;28;20058;-60
2022/08/14 14:29:14;;;;;;;5.15;2.97;;;;;;;;;;4968281;28;20086;-57
2022/08/14 14:31:41;;;;;;;4.00;2.70;;;;;;;;;;4965787;28;20059;-58
2022/08/14 14:34:09;;;;;;;3.50;2.55;;;;;;;;;;4967174;28;20105;-59
2022/08/14 14:36:36;;;;;;;6.65;2.80;;;;;;;;;;4970206;28;20050;-60
2022/08/14 14:39:04;;;;;;;5.70;3.58;;;;;;;;;;4961628;28;20078;-61
2022/08/14 14:41:32;;;;;;;5.70;3.78;;;;;;;;;;4968287;28;20062;-61
2022/08/14 14:44:00;;;;;;;4.20;2.67;;;;;;;;;;4960662;28;20046;-58
2022/08/14 14:46:32;;;;;;;5.93;3.00;;;;;;;;;;4969068;28;20051;-61
2022/08/14 14:49:00;;;;;;;4.95;3.10;;;;;;;;;;4976956;28;20047;-63
2022/08/14 14:51:28;;;;;;;4.25;2.75;;;;;;;;;;4969708;28;20066;-61
2022/08/14 14:53:56;;;;;;;4.72;2.85;;;;;;;;;;4965821;28;20141;-59
2022/08/14 14:56:24;;;;;;;;;;;;;;;;;;4964099;28;20050;-60
2022/08/14 14:58:51;;;;;;;4.47;2.63;;;;;;;;;;4968437;28;20031;-60
2022/08/14 15:01:22;;;;;;;4.78;2.83;;;;;;;;;;4955199;28;20055;-61
2022/08/14 15:03:52;;;;;;;5.80;2.90;;;;;;;;;;4968925;28;20054;-61
2022/08/14 15:06:19;;;;;;;5.18;2.80;;;;;;;;;;4957439;28;20256;-61
2022/08/14 15:08:47;;;;;;;6.30;3.03;;;;;;;;;;4984227;28;20054;-61
2022/08/14 15:11:16;;;;;;;6.13;2.88;;;;;;;;;;4959516;28;20051;-58
2022/08/14 15:13:45;;;;;;;3.97;2.90;;;;;;;;;;4968507;28;20128;-61